Weather reports worldwide

Advertisment
Apt, France (7657): temperature & dewpoint: 10.12.2018 01:00:00 - 16.12.2018 01:00:00 (CET)Apt, France (7657): wind speed & gusts: 10.12.2018 01:00:00 - 16.12.2018 01:00:00 (CET)Apt, France (7657): wind direction: 10.12.2018 01:00:00 - 16.12.2018 01:00:00 (CET)Apt, France (7657): precipitation: 10.12.2018 01:00:00 - 16.12.2018 01:00:00 (CET)
Date & Time tt [°C] td [°C] ff [km/h] ff [kn] fx [km/h] fx [kn] dd rr [mm]
16.12.2018 01:00:00 - - - - - - - -
16.12.2018 00:00:00 1,5 1,1 2 1 5 3 NE 0,2
15.12.2018 23:00:00 1,5 0,9 2 1 4 2 SW 0,2
15.12.2018 22:00:00 1,7 0,1 4 2 5 3 SE 0,4
15.12.2018 21:00:00 2,6 -1,4 4 2 15 8 SE 0,0
15.12.2018 20:00:00 2,3 -1,0 5 3 15 8 SE 0,0
15.12.2018 19:00:00 1,6 -3,3 0 0 5 3 N -
15.12.2018 18:00:00 1,9 -3,2 2 1 4 2 WSW 0,0
15.12.2018 17:00:00 3,0 -4,0 2 1 8 4 SSE 0,0
15.12.2018 16:00:00 3,8 -4,2 8 4 11 6 NNW 0,0
15.12.2018 15:00:00 5,1 -2,3 5 3 18 10 ESE 0,0
15.12.2018 14:00:00 5,7 -2,9 11 6 22 12 SSE 0,0
15.12.2018 13:00:00 7,7 -11,1 8 4 21 11 E -
15.12.2018 12:00:00 7,3 -14,2 4 2 13 7 NW 0,0
15.12.2018 11:00:00 5,1 -13,4 4 2 11 6 SW 0,0
15.12.2018 10:00:00 1,3 -9,4 4 2 9 5 S 0,0
15.12.2018 09:00:00 -2,1 -10,2 4 2 18 10 E 0,0
15.12.2018 08:00:00 -2,1 -12,7 9 5 18 10 W 0,0
15.12.2018 07:00:00 -3,3 -11,8 11 6 24 13 W -
15.12.2018 06:00:00 -2,9 -11,9 13 7 22 12 WNW 0,0
15.12.2018 05:00:00 -3,2 -11,4 11 6 28 15 NW 0,0
15.12.2018 04:00:00 -1,5 -10,8 11 6 29 16 WNW 0,0
15.12.2018 03:00:00 -1,6 -9,5 13 7 26 14 W 0,0
15.12.2018 02:00:00 -1,4 -8,8 11 6 22 12 WNW 0,0
15.12.2018 01:00:00 -2,0 -9,4 11 6 18 10 NW -
15.12.2018 00:00:00 -1,0 -8,9 8 4 18 10 WNW 0,0
14.12.2018 23:00:00 -0,8 -7,8 5 3 34 18 WSW 0,0
14.12.2018 22:00:00 0,0 -6,8 9 5 29 16 W 0,0
14.12.2018 21:00:00 -0,9 -4,6 13 7 24 13 WSW 0,0
14.12.2018 20:00:00 -0,1 -4,2 11 6 24 13 W 0,0
14.12.2018 19:00:00 0,0 -2,1 13 7 28 15 WSW -
14.12.2018 18:00:00 -0,1 -2,0 9 5 28 15 NW 0,0
14.12.2018 17:00:00 1,3 -0,8 16 9 35 19 NW 0,0
14.12.2018 16:00:00 3,7 -0,3 22 12 37 20 NNW 0,0
14.12.2018 15:00:00 5,0 -1,3 26 14 37 20 NNW 0,0
14.12.2018 14:00:00 5,4 -0,2 18 10 35 19 NNW 0,0
14.12.2018 13:00:00 5,0 0,0 16 9 29 16 NNW -
14.12.2018 12:00:00 5,6 1,3 15 8 26 14 NNW 0,0
14.12.2018 11:00:00 5,0 1,7 9 5 22 12 NNW 0,0
14.12.2018 10:00:00 3,4 2,1 8 4 16 9 W 0,0
14.12.2018 09:00:00 1,9 1,5 9 5 21 11 NW 0,0
14.12.2018 08:00:00 1,8 1,7 11 6 16 9 NNW 0,0
14.12.2018 07:00:00 1,7 1,4 5 3 16 9 W -
14.12.2018 06:00:00 1,4 1,1 8 4 15 8 NW 0,0
14.12.2018 05:00:00 1,4 0,7 8 4 16 9 NW 0,0
14.12.2018 04:00:00 1,5 0,0 8 4 13 7 WNW 0,0
14.12.2018 03:00:00 1,1 0,2 4 2 9 5 W 0,0
14.12.2018 02:00:00 1,3 0,3 4 2 11 6 W 0,0
14.12.2018 01:00:00 1,5 0,5 8 4 11 6 WNW -
14.12.2018 00:00:00 1,4 0,8 2 1 9 5 NW 0,0
13.12.2018 23:00:00 1,3 0,9 5 3 9 5 NNW 0,0
13.12.2018 22:00:00 1,3 0,7 0 0 8 4 N 0,0
13.12.2018 21:00:00 1,5 0,9 4 2 11 6 ESE 0,0
13.12.2018 20:00:00 1,5 0,9 8 4 11 6 SE 0,0
13.12.2018 19:00:00 1,6 1,0 8 4 15 8 SSE -
13.12.2018 18:00:00 1,7 1,4 9 5 21 11 SE 0,0
13.12.2018 17:00:00 1,8 1,4 11 6 24 13 SE 0,0
13.12.2018 16:00:00 2,2 1,8 13 7 22 12 SE 0,0
13.12.2018 15:00:00 2,2 1,8 13 7 26 14 SE 0,2
13.12.2018 14:00:00 2,6 2,0 16 9 26 14 SE 0,0
13.12.2018 13:00:00 2,4 1,7 16 9 28 15 SE -
13.12.2018 12:00:00 2,6 2,0 13 7 22 12 SE 0,0
13.12.2018 11:00:00 2,7 2,1 11 6 22 12 SE 0,0
13.12.2018 10:00:00 2,7 1,7 11 6 22 12 SSE 0,0
13.12.2018 09:00:00 2,7 2,0 11 6 21 11 SE 0,0
13.12.2018 08:00:00 2,4 1,8 9 5 18 10 SSE 0,0
13.12.2018 07:00:00 2,3 1,9 8 4 16 9 SE -
13.12.2018 06:00:00 1,9 1,3 9 5 18 10 SE 0,0
13.12.2018 05:00:00 1,5 1,4 4 2 13 7 ESE 0,0
13.12.2018 04:00:00 1,1 0,8 5 3 15 8 ESE 0,0
13.12.2018 03:00:00 1,5 1,1 8 4 15 8 SSE 0,0
13.12.2018 02:00:00 1,2 1,1 8 4 11 6 SE 0,0
13.12.2018 01:00:00 0,1 0,0 4 2 8 4 S -
13.12.2018 00:00:00 -1,5 -2,1 2 1 8 4 E 0,0
12.12.2018 23:00:00 -1,0 -1,3 5 3 9 5 WSW 0,0
12.12.2018 22:00:00 -2,1 -2,4 4 2 8 4 WNW 0,0
12.12.2018 21:00:00 -2,9 -4,2 0 0 9 5 N 0,0
12.12.2018 20:00:00 -1,5 -2,2 8 4 13 7 SW 0,0
12.12.2018 19:00:00 -1,9 -2,9 5 3 9 5 SW -
12.12.2018 18:00:00 -0,7 -2,6 5 3 9 5 WSW 0,0
12.12.2018 17:00:00 1,4 -2,0 5 3 15 8 SW 0,0
12.12.2018 16:00:00 6,4 -0,6 8 4 16 9 SE 0,0
12.12.2018 15:00:00 6,8 -1,1 8 4 18 10 SE 0,0
12.12.2018 14:00:00 6,9 -2,3 8 4 18 10 SE 0,0
12.12.2018 13:00:00 6,9 -2,0 8 4 16 9 ESE -
12.12.2018 12:00:00 6,9 -1,3 4 2 8 4 SSE 0,0
12.12.2018 11:00:00 2,9 -0,4 0 0 5 3 N 0,0
12.12.2018 10:00:00 -1,3 -2,0 2 1 5 3 SSW 0,0
12.12.2018 09:00:00 -4,4 -5,5 0 0 9 5 N 0,0
12.12.2018 08:00:00 -5,2 -5,6 4 2 8 4 W 0,0
12.12.2018 07:00:00 -6,3 -7,1 0 0 5 3 N -
12.12.2018 06:00:00 -5,5 -6,2 2 1 5 3 WSW 0,0
12.12.2018 05:00:00 -4,3 -4,8 5 3 8 4 W 0,0
12.12.2018 04:00:00 -5,0 -6,4 2 1 8 4 W 0,0
12.12.2018 03:00:00 -4,8 -5,9 2 1 8 4 W 0,0
12.12.2018 02:00:00 -5,3 -6,3 4 2 8 4 WSW 0,0
12.12.2018 01:00:00 -5,1 -6,2 4 2 8 4 W -
12.12.2018 00:00:00 -4,8 -6,0 2 1 5 3 WNW 0,0
11.12.2018 23:00:00 -4,3 -5,8 0 0 5 3 N 0,0
11.12.2018 22:00:00 -3,6 -5,0 2 1 8 4 WNW 0,0
11.12.2018 21:00:00 -2,1 -4,9 0 0 13 7 N 0,0
11.12.2018 20:00:00 0,0 -3,7 11 6 18 10 WNW 0,0
11.12.2018 19:00:00 0,6 -3,1 13 7 18 10 W -
11.12.2018 18:00:00 2,3 -2,8 9 5 24 13 NW 0,0
11.12.2018 17:00:00 3,7 -2,7 11 6 22 12 NW 0,0
11.12.2018 16:00:00 5,9 -2,7 15 8 28 15 NW 0,0
11.12.2018 15:00:00 7,2 -2,5 16 9 29 16 NW 0,0
11.12.2018 14:00:00 7,4 -2,4 18 10 31 17 NW 0,0
11.12.2018 13:00:00 7,1 -2,6 21 11 31 17 NW -
11.12.2018 12:00:00 6,5 -2,7 18 10 31 17 NW 0,0
11.12.2018 11:00:00 5,7 -2,7 16 9 44 24 NW 0,0
11.12.2018 10:00:00 4,5 -3,1 21 11 42 23 N 0,0
11.12.2018 09:00:00 3,1 -3,1 16 9 29 16 N 0,0
11.12.2018 08:00:00 1,6 -2,9 8 4 41 22 N 0,0
11.12.2018 07:00:00 2,1 -2,6 24 13 44 24 NW -
11.12.2018 06:00:00 2,4 -2,3 22 12 37 20 NW 0,0
11.12.2018 05:00:00 2,4 -2,5 18 10 44 24 NNW 0,0
11.12.2018 04:00:00 2,4 -2,3 22 12 48 26 NW 0,0
11.12.2018 03:00:00 2,7 -2,2 24 13 44 24 NW 0,0
11.12.2018 02:00:00 3,0 -2,1 29 16 48 26 NNW 0,0
11.12.2018 01:00:00 3,1 -2,0 29 16 50 27 NNW -
11.12.2018 00:00:00 3,1 -1,7 24 13 44 24 NW 0,0
10.12.2018 23:00:00 3,3 -1,5 28 15 52 28 NNW 0,0
10.12.2018 22:00:00 3,8 -1,4 21 11 34 18 NW 0,0
10.12.2018 21:00:00 3,9 -1,7 18 10 34 18 W 0,0
10.12.2018 20:00:00 4,1 -1,3 18 10 37 20 NW 0,0
10.12.2018 19:00:00 4,1 -1,3 21 11 44 24 NW -
10.12.2018 18:00:00 4,5 -1,1 22 12 50 27 NW 0,0
10.12.2018 17:00:00 5,0 -1,3 24 13 44 24 NW 0,0
10.12.2018 16:00:00 6,4 -1,0 22 12 41 22 WNW 0,0
10.12.2018 15:00:00 7,2 -1,0 16 9 50 27 NW 0,0
10.12.2018 14:00:00 7,4 -1,3 18 10 48 26 WNW 0,0
10.12.2018 13:00:00 6,8 -1,1 18 10 57 31 WNW -
10.12.2018 12:00:00 6,4 -0,4 26 14 50 27 WNW 0,0
10.12.2018 11:00:00 5,6 -0,7 16 9 44 24 WNW 0,0
10.12.2018 10:00:00 5,5 -0,8 16 9 42 23 WNW 0,0
10.12.2018 09:00:00 5,5 -1,0 16 9 41 22 W 0,0
10.12.2018 08:00:00 4,5 -1,7 16 9 55 30 W 0,0
10.12.2018 07:00:00 4,6 -1,4 22 12 59 32 WNW -
10.12.2018 06:00:00 4,8 -1,7 29 16 59 32 WNW 0,0
10.12.2018 05:00:00 4,9 -0,9 28 15 54 29 WNW 0,0
10.12.2018 04:00:00 5,5 -0,4 29 16 59 32 WNW 0,0
10.12.2018 03:00:00 5,6 0,6 29 16 55 30 NW 0,0
10.12.2018 02:00:00 5,7 0,6 28 15 59 32 NW 0,0
10.12.2018 01:00:00 5,8 0,7 24 13 52 28 NW -

tt = temperature
td = dewpoint
ff = wind speed
fx = gusts
dd = wind direction
rr = precipitation

Next stations